createdAt,value
2022-10-25T00:00:17.095Z,9.10
2022-10-25T00:02:44.496Z,9.10
2022-10-25T00:05:16.365Z,9.10
2022-10-25T00:07:43.971Z,9.10
2022-10-25T00:10:11.546Z,9.10
2022-10-25T00:12:45.764Z,9.10
2022-10-25T00:15:14.904Z,9.10
2022-10-25T00:17:43.457Z,9.10
2022-10-25T00:20:12.173Z,9.20
2022-10-25T00:22:39.687Z,9.20
2022-10-25T00:25:08.609Z,9.10
2022-10-25T00:27:36.493Z,9.10
2022-10-25T00:30:05.057Z,9.10
2022-10-25T00:32:34.189Z,9.20
2022-10-25T00:35:01.465Z,9.20
2022-10-25T00:37:28.809Z,9.20
2022-10-25T00:39:55.983Z,9.20
2022-10-25T00:42:25.923Z,9.20
2022-10-25T00:44:55.724Z,9.20
2022-10-25T00:47:23.023Z,9.20
2022-10-25T00:50:04.154Z,9.30
2022-10-25T00:52:35.983Z,9.30
2022-10-25T00:55:05.304Z,9.30
2022-10-25T00:57:38.863Z,9.30
2022-10-25T01:00:07.742Z,9.20
2022-10-25T01:02:35.427Z,9.30
2022-10-25T01:05:03.611Z,9.30
2022-10-25T01:07:30.840Z,9.30
2022-10-25T01:09:58.761Z,9.30
2022-10-25T01:12:26.242Z,9.30
2022-10-25T01:14:54.579Z,9.30
2022-10-25T01:17:48.092Z,9.40
2022-10-25T01:20:49.264Z,9.40
2022-10-25T01:23:44.972Z,9.40
2022-10-25T01:26:36.643Z,9.30
2022-10-25T01:29:29.962Z,9.40
2022-10-25T01:32:19.883Z,9.40
2022-10-25T01:34:53.331Z,9.40
2022-10-25T01:37:40.071Z,9.40
2022-10-25T01:40:23.952Z,9.40
2022-10-25T01:43:24.467Z,9.40
2022-10-25T01:46:13.680Z,9.40
2022-10-25T01:48:46.666Z,9.40
2022-10-25T01:51:17.401Z,9.50
2022-10-25T01:53:53.875Z,9.50
2022-10-25T01:56:30.080Z,9.50
2022-10-25T01:59:06.087Z,9.50
2022-10-25T02:02:11.119Z,9.60
2022-10-25T02:05:08.111Z,9.60
2022-10-25T02:07:42.602Z,9.60
2022-10-25T02:10:17.107Z,9.60
2022-10-25T02:12:52.988Z,9.60
2022-10-25T02:15:32.415Z,9.60
2022-10-25T02:18:02.413Z,9.70
2022-10-25T02:20:35.028Z,9.70
2022-10-25T02:23:06.027Z,9.70
2022-10-25T02:25:35.247Z,9.70
2022-10-25T02:28:07.378Z,9.70
2022-10-25T02:30:36.889Z,9.80
2022-10-25T02:33:04.342Z,9.80
2022-10-25T02:35:32.030Z,9.80
2022-10-25T02:37:59.323Z,9.80
2022-10-25T02:40:27.339Z,9.80
2022-10-25T02:42:54.512Z,9.80
2022-10-25T02:45:22.019Z,9.80
2022-10-25T02:47:49.584Z,9.80
2022-10-25T02:50:17.419Z,9.90
2022-10-25T02:52:45.107Z,9.80
2022-10-25T02:55:12.712Z,9.90
2022-10-25T02:57:39.815Z,9.90
2022-10-25T03:00:08.804Z,9.90
2022-10-25T03:02:36.072Z,9.90
2022-10-25T03:05:03.307Z,10.00
2022-10-25T03:07:30.719Z,10.00
2022-10-25T03:09:57.977Z,10.00
2022-10-25T03:12:25.319Z,10.10
2022-10-25T03:14:52.779Z,10.00
2022-10-25T03:17:20.139Z,10.00
2022-10-25T03:19:47.372Z,10.00
2022-10-25T03:22:14.842Z,10.10
2022-10-25T03:24:42.481Z,10.00
2022-10-25T03:27:09.736Z,10.10
2022-10-25T03:29:37.088Z,10.10
2022-10-25T03:32:05.972Z,10.10
2022-10-25T03:34:33.303Z,10.10
2022-10-25T03:37:00.452Z,10.20
2022-10-25T03:39:27.978Z,10.20
2022-10-25T03:41:55.359Z,10.20
2022-10-25T03:44:22.911Z,10.20
2022-10-25T03:46:50.368Z,10.30
2022-10-25T03:49:17.537Z,10.20
2022-10-25T03:51:44.791Z,10.20
2022-10-25T03:54:11.944Z,10.30
2022-10-25T03:56:39.217Z,10.30
2022-10-25T03:59:06.629Z,10.30
2022-10-25T04:01:34.332Z,10.30
2022-10-25T04:04:01.939Z,10.30
2022-10-25T04:06:29.514Z,10.30
2022-10-25T04:08:57.465Z,10.40
2022-10-25T04:11:24.980Z,10.40
2022-10-25T04:13:52.423Z,10.40
2022-10-25T04:16:19.715Z,10.40
2022-10-25T04:18:47.286Z,10.40
2022-10-25T04:21:14.760Z,10.40
2022-10-25T04:23:41.940Z,10.40
2022-10-25T04:26:09.382Z,10.50
2022-10-25T04:28:36.764Z,10.50
2022-10-25T04:31:04.085Z,10.50
2022-10-25T04:33:31.499Z,10.50
2022-10-25T04:35:59.511Z,10.50
2022-10-25T04:38:26.860Z,10.50
2022-10-25T04:40:56.459Z,10.50
2022-10-25T04:43:25.618Z,10.50
2022-10-25T04:45:53.114Z,10.60
2022-10-25T04:48:21.492Z,10.50
2022-10-25T04:50:48.687Z,10.60
2022-10-25T04:53:15.848Z,10.60
2022-10-25T04:55:44.104Z,10.70
2022-10-25T04:58:11.494Z,10.70
2022-10-25T05:00:38.921Z,10.70
2022-10-25T05:03:10.780Z,10.70
2022-10-25T05:05:40.664Z,10.70
2022-10-25T05:08:07.875Z,10.80
2022-10-25T05:10:35.220Z,10.80
2022-10-25T05:13:03.087Z,10.80
2022-10-25T05:15:30.591Z,10.90
2022-10-25T05:17:59.288Z,10.90
2022-10-25T05:20:27.240Z,10.80
2022-10-25T05:22:54.812Z,10.90
2022-10-25T05:25:22.200Z,10.90
2022-10-25T05:27:49.464Z,10.90
2022-10-25T05:30:16.873Z,10.90
2022-10-25T05:32:44.364Z,11.00
2022-10-25T05:35:11.762Z,10.90
2022-10-25T05:37:39.055Z,11.00
2022-10-25T05:40:07.130Z,10.90
2022-10-25T05:42:34.327Z,11.00
2022-10-25T05:45:01.595Z,11.00
2022-10-25T05:47:29.001Z,11.00
2022-10-25T05:49:56.440Z,11.00
2022-10-25T05:52:23.800Z,10.90
2022-10-25T05:54:52.325Z,10.90
2022-10-25T05:57:20.608Z,11.00
2022-10-25T05:59:48.016Z,11.00
2022-10-25T06:02:15.481Z,11.10
2022-10-25T06:04:42.880Z,11.10
2022-10-25T06:07:10.338Z,11.10
2022-10-25T06:09:37.767Z,11.10
2022-10-25T06:12:07.467Z,11.10
2022-10-25T06:14:37.041Z,11.10
2022-10-25T06:17:04.400Z,11.00
2022-10-25T06:19:31.809Z,11.10
2022-10-25T06:21:59.186Z,11.10
2022-10-25T06:24:27.571Z,11.10
2022-10-25T06:26:55.151Z,11.10
2022-10-25T06:29:22.992Z,11.20
2022-10-25T06:31:50.235Z,11.20
2022-10-25T06:34:17.710Z,11.40
2022-10-25T06:36:45.215Z,11.20
2022-10-25T06:39:12.553Z,11.20
2022-10-25T06:41:41.161Z,11.20
2022-10-25T06:44:08.505Z,11.30
2022-10-25T06:49:29.650Z,11.30
2022-10-25T06:51:57.048Z,11.30
2022-10-25T06:54:25.694Z,11.30
2022-10-25T06:56:53.306Z,11.20
2022-10-25T06:59:21.273Z,11.20
2022-10-25T07:01:48.853Z,11.40
2022-10-25T07:04:16.704Z,11.30
2022-10-25T07:06:44.072Z,11.40
2022-10-25T07:09:12.605Z,11.40
2022-10-25T07:11:41.168Z,11.30
2022-10-25T07:14:12.079Z,11.30
2022-10-25T07:16:39.438Z,11.40
2022-10-25T07:19:06.900Z,11.40
2022-10-25T07:21:34.862Z,11.40
2022-10-25T07:24:02.611Z,11.50
2022-10-25T07:26:35.005Z,11.40
2022-10-25T07:29:04.168Z,11.40
2022-10-25T07:31:37.521Z,11.50
2022-10-25T07:34:06.335Z,11.50
2022-10-25T07:36:34.292Z,11.50
2022-10-25T07:39:01.619Z,11.50
2022-10-25T07:41:28.913Z,11.60
2022-10-25T07:43:56.621Z,11.50
2022-10-25T07:46:24.652Z,11.50
2022-10-25T07:48:55.049Z,11.60
2022-10-25T07:51:22.940Z,11.60
2022-10-25T07:53:51.557Z,11.70
2022-10-25T07:56:23.647Z,11.80
2022-10-25T07:58:52.632Z,11.80
2022-10-25T08:01:23.624Z,11.70
2022-10-25T08:03:53.050Z,11.70
2022-10-25T08:06:21.947Z,11.70
2022-10-25T08:08:51.030Z,11.80
2022-10-25T08:11:19.310Z,11.90
2022-10-25T08:13:49.453Z,11.80
2022-10-25T08:16:18.096Z,11.90
2022-10-25T08:18:45.279Z,12.00
2022-10-25T08:21:12.928Z,11.90
2022-10-25T08:23:41.994Z,11.90
2022-10-25T08:26:09.380Z,12.00
2022-10-25T08:28:36.650Z,11.90
2022-10-25T08:31:04.715Z,11.90
2022-10-25T08:33:34.016Z,11.90
2022-10-25T08:36:02.732Z,12.00
2022-10-25T08:38:30.343Z,11.90
2022-10-25T08:41:21.615Z,12.00
2022-10-25T08:44:24.308Z,12.00
2022-10-25T08:47:01.236Z,11.90
2022-10-25T08:49:38.485Z,11.90
2022-10-25T08:52:17.408Z,11.90
2022-10-25T08:54:47.090Z,11.90
2022-10-25T08:57:28.602Z,11.80
2022-10-25T08:59:58.594Z,11.80
2022-10-25T09:02:51.572Z,11.70
2022-10-25T09:05:48.053Z,11.90
2022-10-25T09:08:30.044Z,12.00
2022-10-25T09:11:07.504Z,12.10
2022-10-25T09:13:40.691Z,12.00
2022-10-25T09:16:18.293Z,12.10
2022-10-25T09:19:00.222Z,12.10
2022-10-25T09:21:39.642Z,12.10
2022-10-25T09:24:20.568Z,12.20
2022-10-25T09:27:19.477Z,12.20
2022-10-25T09:29:48.977Z,12.10
2022-10-25T09:32:43.166Z,12.20
2022-10-25T09:35:24.427Z,12.30
2022-10-25T09:38:10.059Z,12.20
2022-10-25T09:40:50.189Z,12.30
2022-10-25T09:43:22.020Z,12.20
2022-10-25T09:46:18.504Z,12.20
2022-10-25T09:49:04.646Z,12.20
2022-10-25T09:51:55.107Z,12.10
2022-10-25T09:54:51.648Z,12.20
2022-10-25T09:57:19.147Z,12.20
2022-10-25T09:59:50.869Z,12.20
2022-10-25T10:02:25.915Z,12.20
2022-10-25T10:04:54.031Z,12.20
2022-10-25T10:07:35.644Z,12.30
2022-10-25T10:10:07.970Z,12.40
2022-10-25T10:12:56.871Z,12.50
2022-10-25T10:15:41.888Z,12.40
2022-10-25T10:18:33.075Z,12.50
2022-10-25T10:21:05.520Z,12.50
2022-10-25T10:24:05.058Z,12.50
2022-10-25T10:26:35.790Z,12.50
2022-10-25T10:29:07.769Z,12.60
2022-10-25T10:31:39.209Z,12.60
2022-10-25T10:34:22.350Z,12.70
2022-10-25T10:37:14.342Z,12.70
2022-10-25T10:39:59.122Z,12.80
2022-10-25T10:42:35.677Z,12.90
2022-10-25T10:45:15.480Z,12.90
2022-10-25T10:47:42.634Z,12.90
2022-10-25T10:50:32.814Z,12.80
2022-10-25T10:53:06.579Z,12.90
2022-10-25T10:55:46.037Z,12.90
2022-10-25T10:58:26.528Z,12.80
2022-10-25T11:01:01.086Z,12.90
2022-10-25T11:04:00.169Z,12.70
2022-10-25T11:06:33.778Z,12.80
2022-10-25T11:09:13.055Z,13.00
2022-10-25T11:11:41.215Z,12.90
2022-10-25T11:14:15.402Z,13.10
2022-10-25T11:17:21.419Z,13.20
2022-10-25T11:20:08.939Z,13.10
2022-10-25T11:22:42.201Z,13.30
2022-10-25T11:25:32.453Z,13.40
2022-10-25T11:28:18.058Z,13.60
2022-10-25T11:31:10.719Z,13.70
2022-10-25T11:34:14.710Z,13.80
2022-10-25T11:36:47.622Z,13.60
2022-10-25T11:39:48.580Z,13.60
2022-10-25T11:42:26.951Z,13.60
2022-10-25T11:45:30.790Z,13.80
2022-10-25T11:48:24.282Z,13.70
2022-10-25T11:51:00.890Z,13.40
2022-10-25T11:53:53.510Z,13.50
2022-10-25T11:57:08.287Z,13.50
2022-10-25T11:59:51.179Z,13.50
2022-10-25T12:02:38.709Z,13.50
2022-10-25T12:05:33.242Z,13.50
2022-10-25T12:08:22.898Z,13.70
2022-10-25T12:10:58.181Z,13.70
2022-10-25T12:13:49.573Z,13.50
2022-10-25T12:16:20.342Z,13.50
2022-10-25T12:19:00.177Z,13.50
2022-10-25T12:21:36.841Z,13.40
2022-10-25T12:24:05.631Z,13.40
2022-10-25T12:26:36.290Z,13.20
2022-10-25T12:29:06.329Z,13.00
2022-10-25T12:31:40.736Z,13.00
2022-10-25T12:34:22.706Z,13.00
2022-10-25T12:36:56.878Z,13.20
2022-10-25T12:39:42.528Z,13.30
2022-10-25T12:42:27.459Z,13.20
2022-10-25T12:45:23.294Z,13.30
2022-10-25T12:48:03.717Z,13.40
2022-10-25T12:50:52.841Z,13.40
2022-10-25T12:53:49.216Z,13.30
2022-10-25T12:56:44.032Z,13.20
2022-10-25T12:59:30.072Z,13.20
2022-10-25T13:02:24.829Z,13.00
2022-10-25T13:05:07.207Z,13.00
2022-10-25T13:07:36.909Z,13.10
2022-10-25T13:10:23.079Z,13.10
2022-10-25T13:13:14.958Z,13.10
2022-10-25T13:15:56.795Z,13.00
2022-10-25T13:18:34.315Z,13.10
2022-10-25T13:21:04.789Z,12.90
2022-10-25T13:23:45.970Z,12.80
2022-10-25T13:26:16.137Z,12.70
2022-10-25T13:28:52.049Z,12.70
2022-10-25T13:31:34.755Z,12.70
2022-10-25T13:34:14.520Z,12.60
2022-10-25T13:37:02.031Z,12.50
2022-10-25T13:39:31.346Z,12.50
2022-10-25T13:42:35.188Z,12.50
2022-10-25T13:45:05.321Z,12.50
2022-10-25T13:47:38.845Z,12.50
2022-10-25T13:50:18.879Z,12.40
2022-10-25T13:53:00.237Z,12.50
2022-10-25T13:55:35.175Z,12.50
2022-10-25T13:58:22.701Z,12.50
2022-10-25T14:00:53.669Z,12.50
2022-10-25T14:03:35.098Z,12.50
2022-10-25T14:06:03.499Z,12.30
2022-10-25T14:08:32.594Z,12.30
2022-10-25T14:11:21.915Z,12.20
2022-10-25T14:13:58.276Z,12.30
2022-10-25T14:16:32.423Z,12.30
2022-10-25T14:19:07.867Z,12.20
2022-10-25T14:21:35.461Z,12.30
2022-10-25T14:24:11.991Z,12.30
2022-10-25T14:26:58.396Z,12.20
2022-10-25T14:29:28.771Z,12.30
2022-10-25T14:31:57.158Z,12.30
2022-10-25T14:34:27.528Z,12.30
2022-10-25T14:36:59.087Z,12.20
2022-10-25T14:39:30.622Z,12.20
2022-10-25T14:42:00.780Z,12.20
2022-10-25T14:44:49.822Z,12.30
2022-10-25T14:47:32.159Z,12.20
2022-10-25T14:50:00.407Z,12.10
2022-10-25T14:52:30.641Z,12.10
2022-10-25T14:55:03.163Z,12.10
2022-10-25T14:57:31.455Z,12.20
2022-10-25T15:00:02.410Z,12.20
2022-10-25T15:02:37.292Z,12.10
2022-10-25T15:05:06.111Z,12.10
2022-10-25T15:07:38.930Z,12.10
2022-10-25T15:12:39.272Z,12.00
2022-10-25T15:15:37.640Z,12.00
2022-10-25T15:18:05.339Z,12.10
2022-10-25T15:20:34.693Z,11.90
2022-10-25T15:23:14.645Z,11.90
2022-10-25T15:25:41.726Z,11.90
2022-10-25T15:28:12.385Z,11.90
2022-10-25T15:30:43.596Z,11.90
2022-10-25T15:33:19.297Z,11.90
2022-10-25T15:35:58.957Z,11.90
2022-10-25T15:38:42.337Z,11.80
2022-10-25T15:41:18.694Z,11.90
2022-10-25T15:43:45.849Z,12.00
2022-10-25T15:46:35.350Z,12.00
2022-10-25T15:49:06.922Z,11.90
2022-10-25T15:51:37.839Z,11.90
2022-10-25T15:54:05.800Z,11.90
2022-10-25T15:56:33.141Z,12.00
2022-10-25T15:59:02.709Z,12.00
2022-10-25T16:01:30.575Z,11.90
2022-10-25T16:03:58.135Z,11.90
2022-10-25T16:06:27.043Z,11.90
2022-10-25T16:08:54.597Z,11.90
2022-10-25T16:11:22.044Z,11.90
2022-10-25T16:13:52.190Z,11.90
2022-10-25T16:16:41.503Z,11.90
2022-10-25T16:19:18.048Z,11.90
2022-10-25T16:21:45.783Z,11.70
2022-10-25T16:24:13.931Z,11.70
2022-10-25T16:26:49.866Z,11.70
2022-10-25T16:29:21.928Z,11.70
2022-10-25T16:31:49.354Z,11.70
2022-10-25T16:34:18.058Z,11.70
2022-10-25T16:36:50.572Z,11.80
2022-10-25T16:39:19.768Z,11.80
2022-10-25T16:41:48.403Z,11.70
2022-10-25T16:44:36.243Z,11.80
2022-10-25T16:47:03.509Z,11.70
2022-10-25T16:49:32.891Z,11.70
2022-10-25T16:52:00.174Z,11.60
2022-10-25T16:54:27.570Z,11.70
2022-10-25T16:56:54.884Z,11.70
2022-10-25T16:59:22.019Z,11.70
2022-10-25T17:01:54.996Z,11.70
2022-10-25T17:04:26.133Z,11.70
2022-10-25T17:06:57.037Z,11.60
2022-10-25T17:09:26.494Z,11.60
2022-10-25T17:11:54.225Z,11.60
2022-10-25T17:14:21.908Z,11.70
2022-10-25T17:16:49.439Z,11.60
2022-10-25T17:19:17.429Z,11.60
2022-10-25T17:21:44.893Z,11.70
2022-10-25T17:24:13.791Z,11.60
2022-10-25T17:26:41.455Z,11.60
2022-10-25T17:29:10.372Z,11.60
2022-10-25T17:31:37.849Z,11.60
2022-10-25T17:34:05.235Z,11.60
2022-10-25T17:36:32.965Z,11.60
2022-10-25T17:39:00.747Z,11.70
2022-10-25T17:41:29.536Z,11.70
2022-10-25T17:44:05.044Z,11.60
2022-10-25T17:46:32.936Z,11.70
2022-10-25T17:49:03.532Z,11.60
2022-10-25T17:51:32.291Z,11.70
2022-10-25T17:54:00.022Z,11.60
2022-10-25T17:56:27.991Z,11.60
2022-10-25T17:58:56.273Z,11.60
2022-10-25T18:01:27.517Z,11.60
2022-10-25T18:03:55.888Z,11.60
2022-10-25T18:06:25.453Z,11.60
2022-10-25T18:09:16.908Z,11.60
2022-10-25T18:11:44.765Z,11.60
2022-10-25T18:14:13.498Z,11.60
2022-10-25T18:16:41.613Z,11.60
2022-10-25T18:19:13.690Z,11.60
2022-10-25T18:21:41.908Z,11.60
2022-10-25T18:24:14.094Z,11.60
2022-10-25T18:26:41.617Z,11.60
2022-10-25T18:29:10.260Z,11.50
2022-10-25T18:31:38.661Z,11.50
2022-10-25T18:34:06.199Z,11.50
2022-10-25T18:36:35.380Z,11.50
2022-10-25T18:39:06.295Z,11.50
2022-10-25T18:41:35.276Z,11.40
2022-10-25T18:44:03.179Z,11.40
2022-10-25T18:46:32.142Z,11.40
2022-10-25T18:48:59.937Z,11.30
2022-10-25T18:51:32.211Z,11.40
2022-10-25T18:54:01.781Z,11.50
2022-10-25T18:56:31.400Z,11.40
2022-10-25T18:58:59.462Z,11.40
2022-10-25T19:01:33.091Z,11.40
2022-10-25T19:04:02.976Z,11.40
2022-10-25T19:06:31.054Z,11.40
2022-10-25T19:08:58.898Z,11.30
2022-10-25T19:11:26.388Z,11.30
2022-10-25T19:13:55.728Z,11.20
2022-10-25T19:16:23.964Z,11.20
2022-10-25T19:18:51.509Z,11.20
2022-10-25T19:21:20.401Z,11.20
2022-10-25T19:23:48.443Z,11.20
2022-10-25T19:26:20.587Z,11.20
2022-10-25T19:28:57.823Z,11.20
2022-10-25T19:31:25.647Z,11.20
2022-10-25T19:33:54.487Z,11.10
2022-10-25T19:36:22.341Z,11.00
2022-10-25T19:38:50.545Z,11.00
2022-10-25T19:41:23.299Z,11.10
2022-10-25T19:43:51.135Z,11.00
2022-10-25T19:46:19.317Z,11.00
2022-10-25T19:48:46.902Z,11.00
2022-10-25T19:51:19.912Z,11.10
2022-10-25T19:53:47.479Z,11.10
2022-10-25T19:56:24.377Z,10.90
2022-10-25T19:58:52.312Z,11.00
2022-10-25T20:01:25.268Z,10.90
2022-10-25T20:04:04.138Z,10.90
2022-10-25T20:06:34.747Z,10.90
2022-10-25T20:09:04.799Z,10.80
2022-10-25T20:11:34.111Z,10.80
2022-10-25T20:14:02.374Z,10.70
2022-10-25T20:16:30.965Z,10.70
2022-10-25T20:19:01.113Z,10.70
2022-10-25T20:21:36.921Z,10.60
2022-10-25T20:24:07.362Z,10.60
2022-10-25T20:26:37.771Z,10.60
2022-10-25T20:29:08.249Z,10.70
2022-10-25T20:31:35.553Z,10.60
2022-10-25T20:34:03.031Z,10.70
2022-10-25T20:36:30.798Z,10.60
2022-10-25T20:38:58.280Z,10.70
2022-10-25T20:41:28.378Z,10.70
2022-10-25T20:43:58.980Z,10.70
2022-10-25T20:46:28.196Z,10.70
2022-10-25T20:48:56.686Z,10.70
2022-10-25T20:51:24.100Z,10.80
2022-10-25T20:53:52.047Z,10.80
2022-10-25T20:56:21.182Z,10.70
2022-10-25T20:58:48.646Z,10.70
2022-10-25T21:01:16.504Z,10.60
2022-10-25T21:03:43.972Z,10.60
2022-10-25T21:06:12.898Z,10.60
2022-10-25T21:08:40.577Z,10.60
2022-10-25T21:11:10.800Z,10.50
2022-10-25T21:13:38.104Z,10.50
2022-10-25T21:16:08.732Z,10.50
2022-10-25T21:18:39.854Z,10.40
2022-10-25T21:21:09.681Z,10.40
2022-10-25T21:23:37.623Z,10.40
2022-10-25T21:26:07.777Z,10.40
2022-10-25T21:28:37.681Z,10.40
2022-10-25T21:31:06.853Z,10.40
2022-10-25T21:33:34.267Z,10.40
2022-10-25T21:36:12.536Z,10.40
2022-10-25T21:38:40.772Z,10.40
2022-10-25T21:41:16.252Z,10.40
2022-10-25T21:43:48.743Z,10.30
2022-10-25T21:46:17.341Z,10.30
2022-10-25T21:48:47.394Z,10.30
2022-10-25T21:51:15.172Z,10.40
2022-10-25T21:53:42.919Z,10.40
2022-10-25T21:56:16.033Z,10.30
2022-10-25T21:58:45.270Z,10.30
2022-10-25T22:01:21.332Z,10.30
2022-10-25T22:03:49.243Z,10.30
2022-10-25T22:06:18.781Z,10.30
2022-10-25T22:08:46.904Z,10.30
2022-10-25T22:11:29.489Z,10.30
2022-10-25T22:14:02.857Z,10.20
2022-10-25T22:16:31.351Z,10.10
2022-10-25T22:19:04.550Z,10.10
2022-10-25T22:21:37.670Z,10.10
2022-10-25T22:24:06.754Z,10.10
2022-10-25T22:26:34.437Z,10.10
2022-10-25T22:29:01.817Z,10.10
2022-10-25T22:31:30.560Z,10.10
2022-10-25T22:34:00.357Z,10.10
2022-10-25T22:36:30.689Z,10.10
2022-10-25T22:38:58.470Z,10.10
2022-10-25T22:41:27.661Z,10.10
2022-10-25T22:43:55.269Z,10.10
2022-10-25T22:46:27.875Z,10.20
2022-10-25T22:48:57.018Z,10.10
2022-10-25T22:51:26.088Z,10.10
2022-10-25T22:53:53.610Z,10.00
2022-10-25T22:56:23.708Z,10.10
2022-10-25T22:58:53.049Z,10.00
2022-10-25T23:01:29.163Z,10.10
2022-10-25T23:03:57.892Z,10.10
2022-10-25T23:06:30.691Z,10.00
2022-10-25T23:09:00.322Z,10.10
2022-10-25T23:11:30.766Z,10.10
2022-10-25T23:14:01.074Z,10.10
2022-10-25T23:16:29.681Z,10.00
2022-10-25T23:18:57.427Z,10.00
2022-10-25T23:21:26.684Z,10.00
2022-10-25T23:23:54.831Z,10.10
2022-10-25T23:26:33.523Z,10.10
2022-10-25T23:29:01.496Z,10.10
2022-10-25T23:31:29.668Z,10.00
2022-10-25T23:33:59.613Z,9.90
2022-10-25T23:36:29.436Z,10.00
2022-10-25T23:38:58.094Z,10.00
2022-10-25T23:41:25.489Z,10.00
2022-10-25T23:43:52.865Z,10.00
2022-10-25T23:46:20.439Z,10.00
2022-10-25T23:48:48.268Z,10.00
2022-10-25T23:51:18.382Z,9.90
2022-10-25T23:53:46.270Z,9.90
2022-10-25T23:56:14.135Z,10.00
2022-10-25T23:58:41.564Z,10.00
